createdAt,value
2022-09-30T00:01:46.382Z,12.30
2022-09-30T00:04:17.213Z,12.30
2022-09-30T00:06:45.488Z,12.30
2022-09-30T00:09:13.482Z,12.40
2022-09-30T00:11:42.143Z,12.40
2022-09-30T00:14:16.257Z,12.40
2022-09-30T00:16:44.232Z,12.50
2022-09-30T00:19:12.474Z,12.40
2022-09-30T00:21:43.455Z,12.50
2022-09-30T00:24:11.457Z,12.50
2022-09-30T00:26:39.370Z,12.50
2022-09-30T00:29:06.903Z,12.50
2022-09-30T00:31:35.459Z,12.50
2022-09-30T00:34:10.276Z,12.50
2022-09-30T00:36:38.272Z,12.50
2022-09-30T00:39:08.489Z,12.50
2022-09-30T00:41:37.624Z,12.50
2022-09-30T00:44:43.225Z,12.50
2022-09-30T00:47:31.381Z,12.50
2022-09-30T00:50:15.375Z,12.50
2022-09-30T00:52:45.410Z,12.50
2022-09-30T00:55:48.813Z,12.50
2022-09-30T00:58:31.284Z,12.50
2022-09-30T01:01:01.899Z,12.50
2022-09-30T01:03:35.216Z,12.50
2022-09-30T01:06:03.002Z,12.40
2022-09-30T01:08:33.581Z,12.50
2022-09-30T01:11:05.823Z,12.50
2022-09-30T01:13:37.227Z,12.50
2022-09-30T01:16:35.226Z,12.50
2022-09-30T01:19:39.660Z,12.40
2022-09-30T01:22:28.743Z,12.40
2022-09-30T01:25:18.186Z,12.50
2022-09-30T01:28:15.687Z,12.40
2022-09-30T01:31:08.273Z,12.40
2022-09-30T01:33:43.747Z,12.40
2022-09-30T01:36:36.171Z,12.40
2022-09-30T01:39:31.719Z,12.40
2022-09-30T01:42:17.458Z,12.40
2022-09-30T01:44:55.290Z,12.40
2022-09-30T01:47:34.297Z,12.40
2022-09-30T01:50:20.742Z,12.40
2022-09-30T01:52:48.183Z,12.40
2022-09-30T01:55:25.229Z,12.40
2022-09-30T01:58:08.979Z,12.40
2022-09-30T02:00:42.325Z,12.40
2022-09-30T02:03:22.369Z,12.40
2022-09-30T02:06:02.489Z,12.40
2022-09-30T02:08:44.857Z,12.30
2022-09-30T02:11:26.577Z,12.40
2022-09-30T02:13:56.586Z,12.30
2022-09-30T02:16:32.512Z,12.40
2022-09-30T02:19:50.690Z,12.40
2022-09-30T02:22:43.300Z,12.40
2022-09-30T02:25:17.484Z,12.30
2022-09-30T02:27:55.013Z,12.40
2022-09-30T02:30:23.148Z,12.40
2022-09-30T02:32:57.478Z,12.40
2022-09-30T02:35:34.727Z,12.40
2022-09-30T02:38:09.365Z,12.40
2022-09-30T02:40:50.187Z,12.30
2022-09-30T02:43:20.683Z,12.40
2022-09-30T02:46:18.993Z,12.40
2022-09-30T02:49:11.820Z,12.40
2022-09-30T02:52:07.471Z,12.30
2022-09-30T02:54:55.694Z,12.30
2022-09-30T02:57:33.857Z,12.30
2022-09-30T03:00:03.547Z,12.30
2022-09-30T03:02:31.755Z,12.30
2022-09-30T03:04:59.178Z,12.30
2022-09-30T03:07:27.122Z,12.30
2022-09-30T03:10:01.396Z,12.30
2022-09-30T03:12:50.666Z,12.30
2022-09-30T03:15:41.640Z,12.30
2022-09-30T03:18:15.180Z,12.30
2022-09-30T03:21:04.062Z,12.30
2022-09-30T03:24:24.737Z,12.30
2022-09-30T03:26:55.004Z,12.30
2022-09-30T03:29:34.808Z,12.30
2022-09-30T03:32:25.787Z,12.30
2022-09-30T03:35:05.016Z,12.20
2022-09-30T03:37:50.841Z,12.30
2022-09-30T03:41:02.934Z,12.30
2022-09-30T03:43:44.326Z,12.30
2022-09-30T03:46:31.616Z,12.30
2022-09-30T03:49:03.127Z,12.30
2022-09-30T03:51:31.284Z,12.30
2022-09-30T03:53:59.098Z,12.30
2022-09-30T03:56:31.843Z,12.30
2022-09-30T03:58:59.579Z,12.30
2022-09-30T04:01:27.038Z,12.30
2022-09-30T04:03:54.548Z,12.30
2022-09-30T04:06:24.103Z,12.30
2022-09-30T04:08:53.912Z,12.30
2022-09-30T04:11:21.527Z,12.30
2022-09-30T04:13:49.225Z,12.30
2022-09-30T04:16:16.683Z,12.30
2022-09-30T04:18:44.463Z,12.30
2022-09-30T04:21:14.996Z,12.30
2022-09-30T04:23:43.194Z,12.30
2022-09-30T04:26:12.837Z,12.30
2022-09-30T04:28:40.340Z,12.30
2022-09-30T04:31:09.999Z,12.30
2022-09-30T04:33:37.810Z,12.30
2022-09-30T04:36:06.393Z,12.30
2022-09-30T04:38:34.272Z,12.30
2022-09-30T04:41:04.147Z,12.20
2022-09-30T04:43:31.796Z,12.20
2022-09-30T04:45:59.305Z,12.20
2022-09-30T04:48:29.791Z,12.20
2022-09-30T04:50:59.607Z,12.20
2022-09-30T04:53:27.262Z,12.20
2022-09-30T04:56:01.829Z,12.20
2022-09-30T04:58:33.382Z,12.20
2022-09-30T05:01:05.282Z,12.20
2022-09-30T05:03:34.185Z,12.10
2022-09-30T05:06:01.946Z,12.10
2022-09-30T05:08:29.510Z,12.10
2022-09-30T05:10:58.414Z,12.20
2022-09-30T05:13:30.672Z,12.10
2022-09-30T05:15:58.744Z,12.10
2022-09-30T05:18:26.517Z,12.20
2022-09-30T05:20:56.149Z,12.10
2022-09-30T05:23:24.649Z,12.10
2022-09-30T05:25:53.030Z,12.20
2022-09-30T05:28:20.807Z,12.20
2022-09-30T05:30:50.016Z,12.10
2022-09-30T05:33:17.452Z,12.20
2022-09-30T05:35:44.953Z,12.10
2022-09-30T05:38:12.419Z,12.10
2022-09-30T05:40:40.812Z,12.20
2022-09-30T05:43:08.309Z,12.20
2022-09-30T05:45:35.772Z,12.20
2022-09-30T05:48:03.261Z,12.10
2022-09-30T05:50:31.167Z,12.10
2022-09-30T05:52:58.639Z,12.10
2022-09-30T05:55:26.146Z,12.10
2022-09-30T05:57:53.633Z,12.10
2022-09-30T06:00:21.144Z,12.10
2022-09-30T06:02:52.052Z,12.10
2022-09-30T06:05:19.778Z,12.10
2022-09-30T06:07:47.214Z,12.10
2022-09-30T06:10:14.784Z,12.20
2022-09-30T06:12:42.195Z,12.20
2022-09-30T06:15:10.112Z,12.20
2022-09-30T06:17:37.623Z,12.20
2022-09-30T06:20:05.719Z,12.20
2022-09-30T06:22:36.112Z,12.20
2022-09-30T06:25:05.935Z,12.20
2022-09-30T06:27:34.562Z,12.20
2022-09-30T06:30:02.060Z,12.20
2022-09-30T06:32:30.287Z,12.20
2022-09-30T06:34:57.946Z,12.20
2022-09-30T06:37:26.080Z,12.20
2022-09-30T06:39:53.499Z,12.20
2022-09-30T06:42:23.344Z,12.20
2022-09-30T06:44:53.414Z,12.30
2022-09-30T06:47:25.677Z,12.20
2022-09-30T06:49:58.585Z,12.20
2022-09-30T06:52:27.324Z,12.20
2022-09-30T06:54:57.857Z,12.20
2022-09-30T06:57:27.794Z,12.20
2022-09-30T06:59:56.278Z,12.20
2022-09-30T07:02:23.827Z,12.20
2022-09-30T07:04:51.419Z,12.20
2022-09-30T07:07:20.909Z,12.20
2022-09-30T07:09:48.440Z,12.20
2022-09-30T07:12:16.818Z,12.20
2022-09-30T07:14:44.332Z,12.20
2022-09-30T07:17:11.852Z,12.30
2022-09-30T07:19:39.408Z,12.30
2022-09-30T07:22:25.189Z,12.30
2022-09-30T07:24:53.048Z,12.30
2022-09-30T07:27:21.066Z,12.30
2022-09-30T07:30:08.238Z,12.30
2022-09-30T07:32:36.523Z,12.40
2022-09-30T07:35:04.329Z,12.40
2022-09-30T07:37:36.127Z,12.30
2022-09-30T07:40:08.341Z,12.30
2022-09-30T07:42:39.364Z,12.30
2022-09-30T07:45:07.346Z,12.30
2022-09-30T07:47:34.804Z,12.30
2022-09-30T07:50:02.355Z,12.30
2022-09-30T07:52:29.797Z,12.30
2022-09-30T07:54:57.327Z,12.30
2022-09-30T07:57:24.826Z,12.40
2022-09-30T07:59:52.348Z,12.40
2022-09-30T08:02:19.832Z,12.40
2022-09-30T08:04:47.777Z,12.40
2022-09-30T08:07:16.898Z,12.30
2022-09-30T08:09:44.541Z,12.40
2022-09-30T08:12:12.126Z,12.40
2022-09-30T08:14:39.687Z,12.30
2022-09-30T08:17:07.197Z,12.30
2022-09-30T08:19:34.885Z,12.20
2022-09-30T08:24:35.804Z,12.20
2022-09-30T08:27:03.508Z,12.10
2022-09-30T08:32:18.782Z,12.10
2022-09-30T08:34:46.311Z,12.10
2022-09-30T08:37:13.806Z,12.00
2022-09-30T08:39:43.485Z,12.00
2022-09-30T08:42:56.737Z,12.00
2022-09-30T08:45:37.428Z,11.90
2022-09-30T08:48:14.616Z,11.90
2022-09-30T08:51:14.135Z,11.90
2022-09-30T08:53:43.752Z,11.90
2022-09-30T08:56:23.606Z,11.90
2022-09-30T08:58:59.635Z,11.90
2022-09-30T09:01:34.469Z,11.90
2022-09-30T09:04:04.684Z,12.00
2022-09-30T09:06:46.893Z,12.00
2022-09-30T09:09:25.222Z,12.00
2022-09-30T09:12:22.626Z,12.00
2022-09-30T09:15:09.331Z,12.00
2022-09-30T09:18:28.884Z,12.00
2022-09-30T09:20:58.706Z,12.00
2022-09-30T09:23:31.791Z,12.00
2022-09-30T09:26:00.184Z,12.00
2022-09-30T09:28:47.267Z,12.00
2022-09-30T09:31:19.741Z,12.00
2022-09-30T09:33:47.388Z,12.00
2022-09-30T09:36:39.314Z,11.90
2022-09-30T09:39:15.926Z,11.90
2022-09-30T09:42:17.141Z,11.80
2022-09-30T09:44:50.125Z,11.80
2022-09-30T09:47:17.830Z,11.80
2022-09-30T09:49:52.725Z,11.80
2022-09-30T09:52:49.917Z,11.80
2022-09-30T09:55:21.728Z,11.80
2022-09-30T09:58:04.873Z,11.70
2022-09-30T10:00:47.413Z,11.70
2022-09-30T10:03:20.710Z,11.70
2022-09-30T10:06:10.626Z,11.70
2022-09-30T10:08:40.565Z,11.70
2022-09-30T10:11:21.252Z,11.70
2022-09-30T10:13:51.105Z,11.60
2022-09-30T10:16:36.673Z,11.70
2022-09-30T10:19:28.882Z,11.60
2022-09-30T10:22:08.546Z,11.70
2022-09-30T10:24:38.602Z,11.60
2022-09-30T10:27:32.293Z,11.50
2022-09-30T10:29:59.772Z,11.50
2022-09-30T10:32:28.083Z,11.50
2022-09-30T10:35:04.047Z,11.50
2022-09-30T10:37:31.569Z,11.50
2022-09-30T10:40:03.206Z,11.50
2022-09-30T10:42:33.710Z,11.50
2022-09-30T10:45:10.160Z,11.50
2022-09-30T10:47:44.562Z,11.60
2022-09-30T10:50:20.622Z,11.60
2022-09-30T10:52:56.336Z,11.50
2022-09-30T10:55:41.623Z,11.60
2022-09-30T10:58:38.040Z,11.50
2022-09-30T11:01:32.765Z,11.50
2022-09-30T11:04:22.307Z,11.60
2022-09-30T11:06:54.813Z,11.50
2022-09-30T11:09:57.932Z,11.50
2022-09-30T11:12:35.099Z,11.60
2022-09-30T11:15:20.060Z,11.50
2022-09-30T11:18:08.117Z,11.50
2022-09-30T11:20:41.115Z,11.50
2022-09-30T11:23:38.114Z,11.60
2022-09-30T11:26:10.116Z,11.60
2022-09-30T11:28:37.462Z,11.50
2022-09-30T11:31:16.548Z,11.50
2022-09-30T11:33:51.625Z,11.50
2022-09-30T11:36:50.688Z,11.60
2022-09-30T11:39:53.663Z,11.50
2022-09-30T11:42:47.755Z,11.60
2022-09-30T11:45:44.032Z,11.60
2022-09-30T11:48:36.667Z,11.50
2022-09-30T11:51:18.987Z,11.50
2022-09-30T11:54:19.886Z,11.50
2022-09-30T11:56:57.204Z,11.60
2022-09-30T11:59:24.660Z,11.50
2022-09-30T12:01:57.647Z,11.50
2022-09-30T12:04:42.613Z,11.50
2022-09-30T12:07:21.048Z,11.50
2022-09-30T12:10:02.884Z,11.60
2022-09-30T12:12:32.208Z,11.60
2022-09-30T12:15:06.914Z,11.70
2022-09-30T12:17:43.202Z,11.70
2022-09-30T12:20:27.033Z,11.70
2022-09-30T12:23:01.950Z,11.60
2022-09-30T12:25:37.860Z,11.70
2022-09-30T12:28:50.238Z,11.60
2022-09-30T12:31:51.947Z,11.70
2022-09-30T12:34:35.755Z,11.70
2022-09-30T12:37:33.993Z,11.80
2022-09-30T12:40:39.471Z,11.80
2022-09-30T12:43:22.299Z,11.70
2022-09-30T12:46:11.029Z,11.70
2022-09-30T12:49:09.476Z,11.70
2022-09-30T12:51:43.386Z,11.70
2022-09-30T12:54:19.829Z,11.70
2022-09-30T12:56:53.624Z,11.70
2022-09-30T12:59:28.226Z,11.60
2022-09-30T13:01:58.036Z,11.60
2022-09-30T13:04:37.865Z,11.70
2022-09-30T13:07:08.557Z,11.70
2022-09-30T13:09:55.102Z,11.70
2022-09-30T13:12:27.687Z,11.70
2022-09-30T13:15:22.971Z,11.70
2022-09-30T13:17:50.443Z,11.70
2022-09-30T13:21:14.995Z,11.80
2022-09-30T13:23:56.881Z,11.80
2022-09-30T13:26:27.748Z,11.80
2022-09-30T13:29:16.227Z,11.80
2022-09-30T13:31:49.365Z,11.80
2022-09-30T13:34:28.436Z,11.80
2022-09-30T13:37:01.427Z,11.80
2022-09-30T13:39:36.509Z,11.80
2022-09-30T13:42:07.808Z,11.80
2022-09-30T13:45:00.192Z,11.80
2022-09-30T13:47:30.073Z,11.80
2022-09-30T13:50:12.454Z,11.80
2022-09-30T13:52:41.949Z,11.80
2022-09-30T13:55:18.755Z,11.80
2022-09-30T13:58:27.686Z,11.80
2022-09-30T14:01:12.888Z,11.80
2022-09-30T14:04:06.477Z,11.80
2022-09-30T14:06:51.812Z,11.80
2022-09-30T14:09:27.382Z,11.80
2022-09-30T14:12:16.432Z,11.90
2022-09-30T14:15:18.204Z,11.90
2022-09-30T14:18:23.207Z,11.80
2022-09-30T14:21:15.499Z,11.90
2022-09-30T14:23:43.801Z,11.90
2022-09-30T14:26:20.324Z,11.90
2022-09-30T14:29:07.035Z,11.90
2022-09-30T14:31:35.348Z,12.00
2022-09-30T14:34:03.975Z,12.10
2022-09-30T14:36:32.300Z,12.10
2022-09-30T14:39:02.507Z,12.30
2022-09-30T14:41:31.460Z,12.40
2022-09-30T14:44:08.136Z,12.40
2022-09-30T14:46:38.979Z,12.50
2022-09-30T14:49:10.257Z,12.60
2022-09-30T14:51:44.700Z,12.60
2022-09-30T14:54:23.027Z,12.60
2022-09-30T14:56:54.893Z,12.70
2022-09-30T14:59:28.135Z,12.70
2022-09-30T15:02:00.766Z,12.80
2022-09-30T15:04:38.978Z,12.80
2022-09-30T15:07:10.957Z,12.80
2022-09-30T15:09:42.253Z,12.90
2022-09-30T15:12:16.217Z,13.00
2022-09-30T15:14:52.823Z,13.00
2022-09-30T15:17:21.830Z,13.00
2022-09-30T15:19:50.580Z,13.00
2022-09-30T15:22:20.232Z,13.20
2022-09-30T15:24:50.044Z,13.30
2022-09-30T15:27:24.007Z,13.20
2022-09-30T15:30:26.834Z,13.30
2022-09-30T15:32:59.351Z,13.30
2022-09-30T15:35:27.905Z,13.30
2022-09-30T15:38:26.801Z,13.30
2022-09-30T15:41:00.737Z,13.40
2022-09-30T15:43:51.728Z,13.40
2022-09-30T15:46:23.205Z,13.40
2022-09-30T15:48:50.702Z,13.40
2022-09-30T15:51:39.420Z,13.30
2022-09-30T15:54:15.704Z,13.40
2022-09-30T15:56:43.645Z,13.40
2022-09-30T15:59:13.665Z,13.40
2022-09-30T16:01:52.279Z,13.50
2022-09-30T16:04:19.765Z,13.60
2022-09-30T16:06:51.757Z,13.80
2022-09-30T16:09:30.864Z,13.90
2022-09-30T16:12:14.897Z,14.00
2022-09-30T16:14:48.970Z,14.00
2022-09-30T16:17:23.481Z,13.90
2022-09-30T16:19:53.057Z,13.90
2022-09-30T16:22:42.842Z,14.00
2022-09-30T16:25:31.781Z,13.90
2022-09-30T16:28:09.919Z,13.90
2022-09-30T16:30:45.235Z,14.00
2022-09-30T16:33:14.809Z,13.90
2022-09-30T16:35:43.807Z,13.80
2022-09-30T16:38:14.496Z,13.80
2022-09-30T16:40:42.140Z,13.90
2022-09-30T16:43:12.564Z,13.80
2022-09-30T16:45:41.114Z,13.70
2022-09-30T16:48:16.751Z,13.70
2022-09-30T16:50:46.825Z,13.60
2022-09-30T16:53:14.446Z,13.50
2022-09-30T16:55:44.908Z,13.40
2022-09-30T16:58:15.892Z,13.30
2022-09-30T17:00:47.129Z,13.30
2022-09-30T17:03:21.617Z,13.30
2022-09-30T17:05:55.785Z,13.20
2022-09-30T17:08:26.081Z,13.20
2022-09-30T17:10:53.535Z,13.10
2022-09-30T17:13:21.392Z,12.90
2022-09-30T17:15:50.894Z,12.90
2022-09-30T17:18:19.026Z,12.80
2022-09-30T17:20:52.773Z,12.60
2022-09-30T17:23:23.657Z,12.50
2022-09-30T17:25:51.993Z,12.30
2022-09-30T17:28:19.602Z,12.20
2022-09-30T17:30:49.099Z,12.10
2022-09-30T17:33:19.843Z,12.00
2022-09-30T17:36:02.252Z,11.80
2022-09-30T17:38:30.050Z,11.70
2022-09-30T17:41:16.180Z,11.60
2022-09-30T17:43:45.512Z,11.50
2022-09-30T17:46:19.064Z,11.30
2022-09-30T17:48:47.163Z,11.30
2022-09-30T17:51:16.470Z,11.20
2022-09-30T17:53:44.535Z,11.10
2022-09-30T17:56:20.268Z,11.10
2022-09-30T17:58:49.155Z,11.00
2022-09-30T18:01:20.426Z,10.90
2022-09-30T18:03:49.274Z,10.90
2022-09-30T18:06:16.672Z,10.90
2022-09-30T18:08:48.785Z,10.80
2022-09-30T18:11:24.323Z,10.70
2022-09-30T18:13:57.808Z,10.60
2022-09-30T18:16:30.889Z,10.50
2022-09-30T18:19:00.030Z,10.60
2022-09-30T18:21:28.400Z,10.60
2022-09-30T18:24:00.426Z,10.60
2022-09-30T18:26:33.174Z,10.60
2022-09-30T18:29:03.832Z,10.80
2022-09-30T18:31:38.860Z,10.70
2022-09-30T18:34:07.180Z,10.80
2022-09-30T18:36:35.311Z,10.80
2022-09-30T18:39:03.009Z,10.80
2022-09-30T18:41:35.712Z,10.70
2022-09-30T18:44:03.898Z,10.70
2022-09-30T18:46:32.039Z,10.60
2022-09-30T18:48:59.599Z,10.60
2022-09-30T18:51:27.422Z,10.50
2022-09-30T18:53:59.694Z,10.40
2022-09-30T18:56:31.897Z,10.30
2022-09-30T18:59:01.489Z,10.20
2022-09-30T19:01:29.046Z,10.20
2022-09-30T19:03:56.860Z,10.10
2022-09-30T19:06:24.904Z,9.90
2022-09-30T19:08:52.367Z,9.80
2022-09-30T19:11:19.879Z,9.80
2022-09-30T19:13:50.963Z,9.80
2022-09-30T19:16:22.059Z,9.80
2022-09-30T19:18:49.972Z,9.70
2022-09-30T19:21:20.290Z,9.80
2022-09-30T19:23:48.101Z,9.80
2022-09-30T19:26:15.844Z,9.80
2022-09-30T19:28:43.379Z,9.70
2022-09-30T19:31:17.129Z,9.70
2022-09-30T19:33:56.068Z,9.60
2022-09-30T19:36:26.799Z,9.60
2022-09-30T19:39:09.325Z,9.70
2022-09-30T19:41:38.415Z,9.70
2022-09-30T19:44:05.912Z,9.60
2022-09-30T19:46:33.406Z,9.60
2022-09-30T19:49:01.396Z,9.60
2022-09-30T19:51:30.821Z,9.50
2022-09-30T19:54:06.303Z,9.40
2022-09-30T19:56:36.790Z,9.40
2022-09-30T19:59:04.448Z,9.40
2022-09-30T20:01:34.937Z,9.30
2022-09-30T20:04:05.365Z,9.30
2022-09-30T20:06:34.549Z,9.30
2022-09-30T20:09:04.425Z,9.30
2022-09-30T20:11:34.142Z,9.30
2022-09-30T20:14:23.178Z,9.20
2022-09-30T20:16:51.089Z,9.30
2022-09-30T20:19:20.362Z,9.30
2022-09-30T20:21:48.165Z,9.30
2022-09-30T20:24:17.367Z,9.20
2022-09-30T20:26:46.081Z,9.20
2022-09-30T20:29:13.864Z,9.20
2022-09-30T20:31:42.880Z,9.20
2022-09-30T20:34:13.848Z,9.20
2022-09-30T20:36:41.806Z,9.30
2022-09-30T20:39:09.842Z,9.30
2022-09-30T20:41:38.779Z,9.30
2022-09-30T20:44:12.123Z,9.40
2022-09-30T20:46:41.693Z,9.30
2022-09-30T20:49:09.755Z,9.20
2022-09-30T20:51:37.886Z,9.20
2022-09-30T20:54:05.484Z,9.20
2022-09-30T20:57:02.475Z,9.20
2022-09-30T20:59:20.472Z,9.20
2022-09-30T21:01:47.912Z,9.20
2022-09-30T21:04:15.489Z,9.20
2022-09-30T21:06:42.927Z,9.20
2022-09-30T21:09:13.872Z,9.20
2022-09-30T21:11:42.366Z,9.20
2022-09-30T21:14:10.073Z,9.20
2022-09-30T21:16:37.711Z,9.20
2022-09-30T21:19:05.230Z,9.20
2022-09-30T21:21:33.010Z,9.20
2022-09-30T21:24:00.757Z,9.30
2022-09-30T21:26:28.379Z,9.30
2022-09-30T21:28:55.878Z,9.40
2022-09-30T21:31:26.848Z,9.30
2022-09-30T21:33:58.559Z,9.40
2022-09-30T21:36:28.938Z,9.40
2022-09-30T21:39:02.493Z,9.50
2022-09-30T21:41:31.312Z,9.50
2022-09-30T21:43:59.835Z,9.50
2022-09-30T21:46:27.715Z,9.60
2022-09-30T21:49:16.275Z,9.60
2022-09-30T21:51:43.797Z,9.70
2022-09-30T21:54:13.451Z,9.70
2022-09-30T21:56:42.990Z,9.80
2022-09-30T21:59:11.655Z,9.80
2022-09-30T22:01:40.090Z,9.80
2022-09-30T22:04:08.257Z,9.80
2022-09-30T22:06:35.765Z,9.90
2022-09-30T22:09:03.976Z,9.80
2022-09-30T22:11:32.407Z,9.80
2022-09-30T22:14:00.468Z,9.80
2022-09-30T22:16:31.011Z,9.80
2022-09-30T22:19:00.873Z,9.80
2022-09-30T22:21:33.646Z,9.80
2022-09-30T22:24:04.010Z,9.80
2022-09-30T22:26:32.931Z,9.80
2022-09-30T22:29:03.312Z,9.80
2022-09-30T22:31:32.925Z,9.80
2022-09-30T22:34:21.365Z,9.80
2022-09-30T22:37:07.510Z,9.80
2022-09-30T22:39:35.369Z,9.80
2022-09-30T22:42:03.416Z,9.80
2022-09-30T22:44:35.570Z,9.70
2022-09-30T22:47:03.953Z,9.60
2022-09-30T22:49:35.036Z,9.50
2022-09-30T22:52:03.837Z,9.50
2022-09-30T22:54:31.519Z,9.40
2022-09-30T22:57:01.765Z,9.50
2022-09-30T22:59:30.084Z,9.40
2022-09-30T23:01:57.998Z,9.40
2022-09-30T23:04:26.893Z,9.40
2022-09-30T23:06:55.558Z,9.30
2022-09-30T23:09:23.659Z,9.20
2022-09-30T23:11:55.123Z,9.20
2022-09-30T23:14:22.874Z,9.10
2022-09-30T23:16:51.301Z,9.10
2022-09-30T23:19:19.314Z,9.10
2022-09-30T23:21:46.928Z,9.00
2022-09-30T23:24:14.567Z,9.00
2022-09-30T23:26:42.247Z,9.10
2022-09-30T23:29:12.779Z,9.20
2022-09-30T23:31:40.542Z,9.30
2022-09-30T23:34:08.616Z,9.40
2022-09-30T23:36:37.473Z,9.50
2022-09-30T23:39:12.712Z,9.50
2022-09-30T23:41:40.779Z,9.60
2022-09-30T23:44:09.144Z,9.60
2022-09-30T23:46:36.758Z,9.60
2022-09-30T23:49:04.208Z,9.70
2022-09-30T23:51:33.645Z,9.80
2022-09-30T23:54:02.446Z,9.80
2022-09-30T23:56:29.913Z,9.80
2022-09-30T23:58:57.474Z,9.90
